Time;durP1;ratioP1;P1;durP2;ratioP2;P2;SDS_P1;SDS_P2;PMS_P1;PMS_P2;Temp;Humidity;BMP_temperature;BMP_pressure;BME280_temperature;BME280_humidity;BME280_pressure;Samples;Min_cycle;Max_cycle;Signal;HPM_P1;HPM_P2
2022/09/14 00:00:14;;;;;;;1.20;1.20;;;24.00;66.10;;;;;;4995914;28;43608;-73
2022/09/14 00:02:45;;;;;;;1.30;1.30;;;24.10;65.50;;;;;;4991813;28;43970;-73
2022/09/14 00:05:13;;;;;;;1.10;1.10;;;24.10;65.40;;;;;;4993862;28;43471;-72
2022/09/14 00:07:41;;;;;;;1.20;1.20;;;24.10;65.40;;;;;;4994196;28;43421;-72
2022/09/14 00:10:10;;;;;;;1.20;1.20;;;24.00;65.50;;;;;;4998058;28;43602;-72
2022/09/14 00:12:37;;;;;;;1.33;1.33;;;23.90;66.00;;;;;;4989070;28;43805;-73
2022/09/14 00:15:06;;;;;;;1.23;1.23;;;23.90;66.10;;;;;;4990889;28;43804;-74
2022/09/14 00:17:34;;;;;;;1.30;1.30;;;23.90;66.10;;;;;;5000248;28;43502;-74
2022/09/14 00:20:04;;;;;;;1.20;1.20;;;23.80;66.10;;;;;;4998708;28;43637;-73
2022/09/14 00:22:32;;;;;;;1.20;1.20;;;23.80;66.40;;;;;;5002189;28;44018;-74
2022/09/14 00:24:59;;;;;;;1.17;1.17;;;23.70;66.60;;;;;;4971895;28;43482;-72
2022/09/14 00:27:27;;;;;;;1.30;1.30;;;23.70;66.50;;;;;;5000747;28;43762;-73
2022/09/14 00:29:55;;;;;;;1.17;1.17;;;23.70;66.40;;;;;;5006697;28;44183;-71
2022/09/14 00:32:23;;;;;;;1.20;1.20;;;23.70;66.40;;;;;;4992727;28;43368;-75
2022/09/14 00:34:51;;;;;;;1.30;1.30;;;23.70;66.90;;;;;;4987432;28;43408;-72
2022/09/14 00:37:20;;;;;;;1.13;1.13;;;23.70;66.80;;;;;;4989923;28;43419;-72
2022/09/14 00:39:49;;;;;;;1.30;1.30;;;23.80;66.50;;;;;;4986080;28;43751;-72
2022/09/14 00:42:18;;;;;;;1.40;1.40;;;24.00;66.10;;;;;;4980730;28;44657;-71
2022/09/14 00:45:07;;;;;;;1.20;1.20;;;24.10;65.60;;;;;;4990402;28;43456;-73
2022/09/14 00:47:34;;;;;;;1.27;1.27;;;24.10;65.40;;;;;;4990902;28;43425;-72
2022/09/14 00:50:03;;;;;;;1.30;1.30;;;24.10;65.50;;;;;;4998294;28;43628;-76
2022/09/14 00:52:34;;;;;;;1.50;1.50;;;24.00;65.70;;;;;;4990494;28;43456;-75
2022/09/14 00:55:04;;;;;;;1.10;1.10;;;23.90;66.20;;;;;;4996166;28;43810;-72
2022/09/14 00:57:36;;;;;;;1.30;1.30;;;23.90;66.30;;;;;;4992632;28;43444;-72
2022/09/14 01:00:14;;;;;;;1.33;1.33;;;23.80;66.20;;;;;;4997125;28;43628;-72
2022/09/14 01:02:42;;;;;;;1.40;1.40;;;23.80;66.20;;;;;;5000230;28;43533;-77
2022/09/14 01:05:10;;;;;;;1.13;1.13;;;23.70;66.40;;;;;;4992039;28;43464;-75
2022/09/14 01:07:56;;;;;;;1.10;1.10;;;23.70;66.70;;;;;;4992425;28;43756;-75
2022/09/14 01:10:31;;;;;;;1.40;1.40;;;23.80;66.50;;;;;;4991971;28;45703;-76
2022/09/14 01:13:06;;;;;;;1.20;1.20;;;24.00;66.20;;;;;;4987163;28;43417;-79
2022/09/14 01:15:39;;;;;;;1.30;1.30;;;24.10;65.60;;;;;;4992795;28;43574;-76
2022/09/14 01:18:08;;;;;;;1.30;1.30;;;24.10;65.30;;;;;;4996195;28;43722;-77
2022/09/14 01:20:38;;;;;;;1.30;1.30;;;24.10;65.30;;;;;;4991914;28;43782;-76
2022/09/14 01:23:09;;;;;;;1.20;1.20;;;24.00;65.50;;;;;;4971134;28;44710;-76
2022/09/14 01:25:50;;;;;;;1.13;1.13;;;23.90;65.90;;;;;;4991898;28;43930;-77
2022/09/14 01:28:21;;;;;;;1.20;1.20;;;23.90;66.20;;;;;;4990877;28;43499;-76
2022/09/14 01:30:49;;;;;;;1.10;1.10;;;23.90;66.20;;;;;;4989948;28;43625;-76
2022/09/14 01:33:19;;;;;;;1.20;1.20;;;23.80;66.10;;;;;;4993015;28;43484;-76
2022/09/14 01:35:49;;;;;;;1.20;1.20;;;23.80;66.40;;;;;;4987568;28;43455;-75
2022/09/14 01:38:19;;;;;;;1.23;1.20;;;23.70;66.70;;;;;;4992412;28;43912;-78
2022/09/14 01:40:48;;;;;;;1.10;1.10;;;23.70;66.60;;;;;;4973733;28;45299;-75
2022/09/14 01:43:19;;;;;;;1.33;1.33;;;23.70;66.50;;;;;;4991812;28;43433;-74
2022/09/14 01:45:49;;;;;;;1.13;1.13;;;23.70;66.40;;;;;;4971759;28;43970;-77
2022/09/14 01:48:18;;;;;;;1.10;1.10;;;23.70;66.90;;;;;;4992136;28;43567;-75
2022/09/14 01:50:47;;;;;;;1.30;1.30;;;23.70;66.80;;;;;;4974358;28;46593;-77
2022/09/14 01:53:16;;;;;;;1.40;1.33;;;23.80;66.50;;;;;;4993148;28;43421;-77
2022/09/14 01:55:46;;;;;;;1.20;1.20;;;24.00;66.10;;;;;;4974897;28;43584;-76
2022/09/14 01:58:15;;;;;;;1.30;1.30;;;24.10;65.60;;;;;;5000646;28;43915;-76
2022/09/14 02:00:46;;;;;;;1.30;1.30;;;24.20;65.40;;;;;;4991175;28;44407;-75
2022/09/14 02:03:15;;;;;;;1.10;1.10;;;24.10;65.40;;;;;;4991410;28;43481;-78
2022/09/14 02:05:48;;;;;;;1.03;1.03;;;24.00;65.40;;;;;;4998961;28;43396;-77
2022/09/14 02:08:16;;;;;;;1.20;1.20;;;24.00;65.80;;;;;;5007829;28;43419;-76
2022/09/14 02:10:44;;;;;;;1.30;1.30;;;23.90;66.10;;;;;;4995350;28;44784;-76
2022/09/14 02:13:15;;;;;;;1.17;1.17;;;23.90;66.20;;;;;;4994617;28;43309;-76
2022/09/14 02:15:43;;;;;;;1.13;1.13;;;23.90;66.20;;;;;;4992473;28;43413;-77
2022/09/14 02:18:12;;;;;;;1.10;1.10;;;23.80;66.20;;;;;;4993907;28;43349;-77
2022/09/14 02:20:41;;;;;;;1.30;1.30;;;23.70;66.60;;;;;;4989534;28;43679;-77
2022/09/14 02:23:09;;;;;;;1.10;1.10;;;23.80;66.70;;;;;;5006883;28;43536;-76
2022/09/14 02:25:39;;;;;;;1.10;1.10;;;23.80;66.50;;;;;;4993678;28;44030;-77
2022/09/14 02:28:07;;;;;;;1.10;1.10;;;23.70;66.40;;;;;;4991032;28;43405;-75
2022/09/14 02:30:39;;;;;;;1.13;1.13;;;23.70;66.80;;;;;;4978730;28;43832;-76
2022/09/14 02:33:11;;;;;;;0.93;0.93;;;23.70;66.90;;;;;;4976875;28;44373;-77
2022/09/14 02:35:41;;;;;;;1.10;1.10;;;23.80;66.60;;;;;;4989038;28;43405;-76
2022/09/14 02:38:13;;;;;;;1.13;1.13;;;24.00;66.20;;;;;;4995484;28;43933;-75
2022/09/14 02:40:43;;;;;;;1.30;1.30;;;24.10;65.70;;;;;;4988279;28;45069;-77
2022/09/14 02:43:16;;;;;;;1.27;1.27;;;24.10;65.40;;;;;;4993336;28;43400;-75
2022/09/14 02:45:49;;;;;;;1.20;1.20;;;24.10;65.50;;;;;;4997331;28;43537;-76
2022/09/14 02:48:19;;;;;;;1.30;1.30;;;24.00;65.50;;;;;;4996476;28;43803;-76
2022/09/14 02:50:51;;;;;;;1.20;1.20;;;23.90;65.90;;;;;;4992778;28;43609;-77
2022/09/14 02:53:21;;;;;;;1.10;1.10;;;23.90;66.30;;;;;;4994763;28;43463;-76
2022/09/14 02:55:51;;;;;;;1.10;1.10;;;23.90;66.30;;;;;;4991545;28;43458;-75
2022/09/14 02:58:19;;;;;;;1.20;1.20;;;23.80;66.20;;;;;;4997414;28;43425;-76
2022/09/14 03:00:49;;;;;;;2.37;1.37;;;23.80;66.30;;;;;;4970850;28;45738;-76
2022/09/14 03:03:18;;;;;;;1.10;1.10;;;23.70;66.70;;;;;;4988204;28;43354;-77
2022/09/14 03:05:46;;;;;;;1.20;1.20;;;23.70;66.80;;;;;;4997063;28;43423;-77
2022/09/14 03:08:15;;;;;;;1.20;1.20;;;23.70;66.60;;;;;;4989894;28;44216;-76
2022/09/14 03:10:43;;;;;;;1.03;1.03;;;23.70;66.50;;;;;;4996135;28;43610;-76
2022/09/14 03:13:11;;;;;;;1.20;1.20;;;23.70;66.70;;;;;;5005659;28;44812;-75
2022/09/14 03:15:40;;;;;;;1.00;1.00;;;23.70;67.00;;;;;;5001136;28;43376;-77
2022/09/14 03:18:08;;;;;;;1.10;1.10;;;23.70;66.80;;;;;;4999170;28;43360;-76
2022/09/14 03:20:41;;;;;;;1.20;1.20;;;23.90;66.50;;;;;;4988802;28;43591;-76
2022/09/14 03:23:10;;;;;;;1.20;1.20;;;24.00;65.90;;;;;;4993990;28;43944;-76
2022/09/14 03:25:40;;;;;;;1.00;1.00;;;24.10;65.70;;;;;;4999347;28;43480;-76
2022/09/14 03:28:08;;;;;;;1.10;1.10;;;24.10;65.60;;;;;;4975719;28;43956;-77
2022/09/14 03:30:36;;;;;;;0.90;0.90;;;24.10;65.70;;;;;;4990417;28;43923;-76
2022/09/14 03:33:03;;;;;;;1.10;1.10;;;24.00;65.90;;;;;;5002503;28;43400;-75
2022/09/14 03:35:32;;;;;;;1.17;1.07;;;23.90;66.20;;;;;;4970850;28;43419;-75
2022/09/14 03:38:01;;;;;;;1.30;1.30;;;23.90;66.20;;;;;;4991769;28;43393;-76
2022/09/14 03:40:29;;;;;;;1.03;1.03;;;23.90;66.20;;;;;;4992202;28;43860;-76
2022/09/14 03:42:59;;;;;;;1.23;1.20;;;23.80;66.10;;;;;;4992753;28;43417;-76
2022/09/14 03:45:27;;;;;;;2.20;1.60;;;23.80;66.70;;;;;;4988772;28;43700;-74
2022/09/14 03:47:54;;;;;;;1.80;1.70;;;23.80;66.60;;;;;;4998133;28;43507;-74
2022/09/14 03:50:22;;;;;;;3.40;1.90;;;23.80;66.70;;;;;;4975463;28;45722;-74
2022/09/14 03:52:50;;;;;;;3.67;1.90;;;23.80;66.50;;;;;;4979871;28;44688;-76
2022/09/14 03:55:19;;;;;;;3.80;2.40;;;23.70;66.90;;;;;;4990367;28;43499;-76
2022/09/14 03:57:46;;;;;;;4.17;2.70;;;23.70;66.80;;;;;;5000601;28;43754;-76
2022/09/14 04:00:16;;;;;;;4.63;2.90;;;23.90;66.60;;;;;;4971593;28;43995;-76
2022/09/14 04:02:45;;;;;;;3.57;2.50;;;24.00;66.20;;;;;;4993217;28;43412;-77
2022/09/14 04:05:13;;;;;;;5.17;3.10;;;24.20;65.70;;;;;;4994346;28;43404;-76
2022/09/14 04:07:43;;;;;;;5.33;2.87;;;24.30;65.40;;;;;;4977767;28;43439;-75
2022/09/14 04:10:11;;;;;;;5.23;2.63;;;24.20;65.30;;;;;;4987862;28;45300;-75
2022/09/14 04:12:39;;;;;;;3.63;2.73;;;24.20;65.50;;;;;;4969905;28;44636;-75
2022/09/14 04:15:07;;;;;;;9.77;2.87;;;24.10;65.70;;;;;;4988755;28;44009;-76
2022/09/14 04:17:37;;;;;;;3.87;2.70;;;24.00;66.10;;;;;;4975365;28;43524;-74
2022/09/14 04:20:05;;;;;;;4.23;3.20;;;24.00;66.20;;;;;;4990761;28;43921;-77
2022/09/14 04:22:33;;;;;;;5.93;2.60;;;23.90;66.00;;;;;;4978280;28;44669;-75
2022/09/14 04:25:01;;;;;;;5.07;2.70;;;23.90;66.20;;;;;;4991907;28;44033;-76
2022/09/14 04:27:30;;;;;;;5.13;3.17;;;23.80;67.00;;;;;;4971211;28;43976;-75
2022/09/14 04:29:58;;;;;;;4.23;3.00;;;23.80;66.70;;;;;;4994672;28;43609;-75
2022/09/14 04:32:25;;;;;;;5.53;3.10;;;23.80;66.60;;;;;;4994034;28;43452;-77
2022/09/14 04:35:01;;;;;;;4.43;2.90;;;23.80;66.50;;;;;;4991421;28;43501;-76
2022/09/14 04:37:31;;;;;;;4.20;3.27;;;23.80;66.60;;;;;;4972211;28;43434;-75
2022/09/14 04:39:58;;;;;;;4.03;3.07;;;23.70;66.90;;;;;;4981679;28;45822;-75
2022/09/14 04:42:27;;;;;;;6.07;3.33;;;23.80;67.00;;;;;;5000082;28;43413;-74
2022/09/14 04:44:54;;;;;;;3.60;3.30;;;23.90;66.60;;;;;;4990229;28;43337;-76
2022/09/14 04:47:22;;;;;;;5.03;3.53;;;24.00;66.10;;;;;;4995049;28;43359;-76
2022/09/14 04:49:50;;;;;;;5.83;3.40;;;24.10;65.70;;;;;;4989339;28;43801;-76
2022/09/14 04:52:20;;;;;;;5.07;3.27;;;24.10;65.50;;;;;;4993291;28;43492;-75
2022/09/14 04:54:48;;;;;;;4.10;3.20;;;24.10;65.50;;;;;;4997774;28;43405;-76
2022/09/14 04:57:16;;;;;;;5.50;3.20;;;24.00;65.70;;;;;;4990925;28;43405;-75
2022/09/14 04:59:44;;;;;;;4.67;3.63;;;24.00;66.30;;;;;;4986823;28;43612;-75
2022/09/14 05:02:12;;;;;;;5.43;3.63;;;23.90;66.40;;;;;;4992336;28;43446;-75
2022/09/14 05:04:41;;;;;;;3.33;3.00;;;23.90;66.40;;;;;;4989917;28;43970;-76
2022/09/14 05:07:09;;;;;;;4.47;3.17;;;23.80;66.30;;;;;;4973255;28;43530;-76
2022/09/14 05:09:38;;;;;;;3.80;3.13;;;23.80;66.60;;;;;;4989472;28;43616;-76
2022/09/14 05:12:07;;;;;;;3.83;3.20;;;23.80;66.90;;;;;;4976992;28;44683;-76
2022/09/14 05:14:35;;;;;;;4.67;3.20;;;23.90;66.90;;;;;;4998708;28;43551;-77
2022/09/14 05:17:03;;;;;;;4.40;3.20;;;24.00;66.40;;;;;;4974842;28;43402;-75
2022/09/14 05:19:31;;;;;;;4.70;3.20;;;24.00;66.10;;;;;;4980216;28;45642;-76
2022/09/14 05:21:59;;;;;;;3.17;2.80;;;24.00;66.00;;;;;;4987181;28;43418;-76
2022/09/14 05:24:27;;;;;;;4.40;3.10;;;24.00;66.10;;;;;;4995896;28;43896;-76
2022/09/14 05:26:56;;;;;;;3.23;2.93;;;24.00;66.40;;;;;;4989086;28;43376;-76
2022/09/14 05:29:30;;;;;;;3.23;2.93;;;23.90;66.40;;;;;;4997251;28;43600;-74
2022/09/14 05:31:58;;;;;;;3.77;3.07;;;23.90;66.30;;;;;;4989309;28;43455;-77
2022/09/14 05:34:26;;;;;;;6.10;3.23;;;23.90;66.30;;;;;;4984537;28;43516;-76
2022/09/14 05:36:54;;;;;;;3.20;2.77;;;23.80;66.70;;;;;;4988814;28;43393;-76
2022/09/14 05:39:23;;;;;;;3.03;2.80;;;23.80;66.70;;;;;;4994472;28;43944;-77
2022/09/14 05:41:51;;;;;;;4.70;2.70;;;23.80;66.60;;;;;;4969376;28;45393;-75
2022/09/14 05:44:21;;;;;;;3.17;2.90;;;23.80;66.50;;;;;;4974994;28;43498;-77
2022/09/14 05:46:49;;;;;;;3.23;2.93;;;23.80;66.70;;;;;;4995054;28;44073;-76
2022/09/14 05:49:16;;;;;;;3.30;3.00;;;23.70;67.00;;;;;;4993281;28;43604;-77
2022/09/14 05:51:44;;;;;;;2.73;2.53;;;23.80;67.00;;;;;;4976971;28;44067;-77
2022/09/14 05:54:12;;;;;;;3.00;2.70;;;23.80;66.90;;;;;;4993881;28;43504;-76
2022/09/14 05:56:40;;;;;;;3.20;2.90;;;23.70;66.70;;;;;;4992155;28;43490;-74
2022/09/14 05:59:09;;;;;;;3.03;2.60;;;23.70;67.20;;;;;;4996407;28;43603;-75
2022/09/14 06:01:39;;;;;;;3.47;2.80;;;23.70;67.30;;;;;;4986650;28;43480;-74
2022/09/14 06:04:07;;;;;;;3.10;2.87;;;23.80;67.00;;;;;;4969204;28;43484;-76
2022/09/14 06:06:34;;;;;;;3.53;2.87;;;24.00;66.60;;;;;;4970964;28;43486;-76
2022/09/14 06:09:02;;;;;;;2.93;2.70;;;24.10;66.00;;;;;;4992148;28;44067;-75
2022/09/14 06:11:31;;;;;;;3.13;2.93;;;24.20;65.80;;;;;;4981385;28;44965;-75
2022/09/14 06:13:59;;;;;;;2.90;2.70;;;24.20;65.80;;;;;;4997536;28;43405;-76
2022/09/14 06:16:27;;;;;;;2.63;2.53;;;24.10;65.80;;;;;;4988621;28;43795;-76
2022/09/14 06:18:57;;;;;;;2.90;2.70;;;24.00;66.00;;;;;;4986512;28;43952;-75
2022/09/14 06:21:28;;;;;;;2.87;2.60;;;23.90;66.40;;;;;;4986006;28;43504;-76
2022/09/14 06:23:56;;;;;;;2.97;2.77;;;23.90;66.50;;;;;;4987101;28;43467;-76
2022/09/14 06:26:24;;;;;;;2.70;2.50;;;23.90;66.50;;;;;;4987731;28;43385;-76
2022/09/14 06:28:52;;;;;;;3.23;3.00;;;23.80;66.40;;;;;;4970443;28;45569;-75
2022/09/14 06:31:21;;;;;;;2.90;2.70;;;23.80;67.00;;;;;;4992719;28;43411;-76
2022/09/14 06:33:50;;;;;;;2.90;2.70;;;23.80;67.00;;;;;;4969867;28;43462;-75
2022/09/14 06:36:21;;;;;;;2.87;2.63;;;23.80;66.90;;;;;;4989089;28;43439;-76
2022/09/14 06:38:49;;;;;;;3.10;2.90;;;23.80;66.80;;;;;;5000377;28;43613;-77
2022/09/14 06:41:19;;;;;;;3.10;2.90;;;23.70;66.70;;;;;;4991879;28;44114;-76
2022/09/14 06:43:47;;;;;;;2.67;2.57;;;23.70;67.30;;;;;;4994936;28;43333;-76
2022/09/14 06:46:17;;;;;;;2.73;2.53;;;23.70;67.10;;;;;;4998561;28;43505;-76
2022/09/14 06:48:46;;;;;;;2.67;2.57;;;23.90;66.70;;;;;;4995683;28;43909;-75
2022/09/14 06:51:15;;;;;;;2.33;2.23;;;24.00;66.20;;;;;;4979294;28;44921;-76
2022/09/14 06:53:45;;;;;;;2.63;2.53;;;24.20;65.80;;;;;;4977066;28;43972;-76
2022/09/14 06:56:12;;;;;;;2.40;2.30;;;24.20;65.70;;;;;;4999194;28;43455;-77
2022/09/14 06:58:40;;;;;;;2.40;2.30;;;24.20;65.70;;;;;;4990791;28;43955;-76
2022/09/14 07:01:11;;;;;;;2.90;2.70;;;24.10;65.80;;;;;;5000336;28;44005;-76
2022/09/14 07:03:39;;;;;;;2.30;2.20;;;24.00;67.00;;;;;;4976764;28;43435;-76
2022/09/14 07:06:09;;;;;;;2.50;2.40;;;23.90;66.40;;;;;;4980601;28;44020;-76
2022/09/14 07:08:37;;;;;;;2.33;2.23;;;23.90;66.50;;;;;;4995563;28;43636;-75
2022/09/14 07:11:07;;;;;;;2.30;2.20;;;23.90;66.50;;;;;;4995226;28;43503;-76
2022/09/14 07:13:36;;;;;;;2.70;2.50;;;23.80;66.70;;;;;;4995428;28;43428;-76
2022/09/14 07:16:04;;;;;;;2.30;2.20;;;23.70;66.90;;;;;;4995246;28;43464;-76
2022/09/14 07:18:32;;;;;;;2.47;2.27;;;23.80;66.90;;;;;;4988939;28;43640;-76
2022/09/14 07:21:04;;;;;;;2.30;2.20;;;23.80;66.80;;;;;;5000581;28;44545;-77
2022/09/14 07:23:32;;;;;;;2.83;2.63;;;23.70;66.80;;;;;;4999085;28;43762;-74
2022/09/14 07:26:03;;;;;;;2.40;2.30;;;23.70;67.30;;;;;;4994595;28;43572;-75
2022/09/14 07:28:32;;;;;;;2.63;2.53;;;23.70;67.10;;;;;;4992469;28;43974;-75
2022/09/14 07:31:00;;;;;;;2.33;2.23;;;23.90;66.80;;;;;;4995678;28;43475;-76
2022/09/14 07:33:28;;;;;;;2.70;2.50;;;24.00;66.30;;;;;;4990266;28;43410;-75
2022/09/14 07:36:05;;;;;;;2.40;2.30;;;24.10;65.90;;;;;;4994750;28;43540;-77
2022/09/14 07:38:33;;;;;;;2.50;2.40;;;24.10;65.80;;;;;;4972908;28;46016;-76
2022/09/14 07:41:19;;;;;;;2.53;2.37;;;24.10;65.90;;;;;;4989057;28;43414;-74
2022/09/14 07:43:50;;;;;;;2.20;2.10;;;24.00;66.10;;;;;;4990275;28;43844;-75
2022/09/14 07:46:18;;;;;;;2.53;2.43;;;23.90;66.60;;;;;;4995747;28;43441;-77
2022/09/14 07:48:46;;;;;;;2.33;2.23;;;23.90;66.60;;;;;;4976549;28;45613;-76
2022/09/14 07:51:13;;;;;;;2.40;2.30;;;23.90;66.60;;;;;;4974927;28;45523;-76
2022/09/14 07:53:42;;;;;;;2.50;2.40;;;23.80;66.50;;;;;;4989835;28;43458;-75
2022/09/14 07:56:12;;;;;;;2.40;2.30;;;23.80;67.00;;;;;;4972477;28;43553;-77
2022/09/14 07:58:40;;;;;;;2.20;2.10;;;23.80;67.20;;;;;;4995128;28;43811;-77
2022/09/14 08:01:11;;;;;;;2.37;2.27;;;23.90;66.90;;;;;;4993550;28;44058;-75
2022/09/14 08:03:39;;;;;;;2.20;2.10;;;24.00;66.60;;;;;;4987103;28;43927;-76
2022/09/14 08:06:09;;;;;;;2.20;2.10;;;24.00;66.40;;;;;;4993629;28;43385;-76
2022/09/14 08:08:38;;;;;;;2.57;2.43;;;23.90;66.20;;;;;;4991168;28;44828;-77
2022/09/14 08:11:07;;;;;;;2.13;2.03;;;23.90;66.60;;;;;;4986630;28;43419;-75
2022/09/14 08:13:35;;;;;;;2.20;2.10;;;23.90;66.70;;;;;;4997288;28;43456;-76
2022/09/14 08:16:03;;;;;;;2.20;2.10;;;23.90;67.40;;;;;;4998161;28;43668;-76
2022/09/14 08:18:34;;;;;;;2.40;2.30;;;23.90;66.60;;;;;;4992851;28;43767;-77
2022/09/14 08:21:04;;;;;;;2.00;1.90;;;23.80;66.60;;;;;;4989562;28;43551;-76
2022/09/14 08:23:31;;;;;;;2.07;2.00;;;23.80;67.70;;;;;;5000263;28;43394;-75
2022/09/14 08:26:03;;;;;;;2.33;2.23;;;23.80;67.00;;;;;;4992022;28;43468;-76
2022/09/14 08:28:31;;;;;;;2.03;1.93;;;23.80;66.90;;;;;;4994800;28;43506;-75
2022/09/14 08:31:03;;;;;;;2.53;2.40;;;23.70;66.80;;;;;;4992436;28;43416;-77
2022/09/14 08:33:33;;;;;;;2.40;2.30;;;23.70;67.40;;;;;;4992911;28;43372;-75
2022/09/14 08:36:01;;;;;;;2.20;2.13;;;23.70;67.20;;;;;;4990173;28;43906;-77
2022/09/14 08:38:29;;;;;;;2.27;2.17;;;23.90;67.00;;;;;;4991951;28;43633;-76
2022/09/14 08:40:58;;;;;;;2.10;2.00;;;24.00;66.40;;;;;;4989461;28;43393;-77
2022/09/14 08:43:25;;;;;;;2.20;2.10;;;24.10;66.10;;;;;;4992069;28;43469;-77
2022/09/14 08:46:04;;;;;;;2.47;2.37;;;24.10;66.00;;;;;;4990843;28;43406;-76
2022/09/14 08:48:37;;;;;;;2.30;2.20;;;24.10;66.30;;;;;;4985923;28;43839;-76
2022/09/14 08:51:05;;;;;;;2.30;2.20;;;24.00;66.10;;;;;;4992902;28;43403;-76
2022/09/14 08:53:33;;;;;;;2.20;2.10;;;23.90;66.60;;;;;;4986625;28;43474;-74
2022/09/14 08:56:02;;;;;;;2.33;2.23;;;23.90;66.80;;;;;;4995436;28;43417;-77
2022/09/14 08:58:34;;;;;;;2.00;2.00;;;23.90;66.70;;;;;;4988567;28;43723;-74
2022/09/14 09:01:15;;;;;;;2.30;2.20;;;23.80;66.60;;;;;;4991542;28;43364;-75
2022/09/14 09:04:03;;;;;;;2.00;2.00;;;23.70;67.00;;;;;;4986759;28;43712;-76
2022/09/14 09:06:36;;;;;;;2.10;2.00;;;23.70;67.20;;;;;;4987025;28;43488;-76
2022/09/14 09:09:07;;;;;;;2.30;2.20;;;23.80;66.90;;;;;;4987753;28;43565;-75
2022/09/14 09:11:39;;;;;;;2.23;2.13;;;24.00;66.60;;;;;;4988052;28;43434;-75
2022/09/14 09:14:14;;;;;;;2.40;2.30;;;24.10;66.20;;;;;;4986943;28;43357;-76
2022/09/14 09:16:45;;;;;;;2.30;2.20;;;24.10;66.10;;;;;;4988492;28;43407;-77
2022/09/14 09:19:18;;;;;;;2.13;2.03;;;24.00;66.10;;;;;;4984601;28;44018;-74
2022/09/14 09:21:46;;;;;;;2.10;2.00;;;24.00;66.20;;;;;;4985637;28;43451;-75
2022/09/14 09:24:20;;;;;;;2.10;2.00;;;23.90;66.70;;;;;;4987994;28;43426;-76
2022/09/14 09:26:49;;;;;;;2.17;2.10;;;23.80;67.50;;;;;;4987859;28;43836;-76
2022/09/14 09:29:16;;;;;;;2.20;2.10;;;23.80;66.70;;;;;;4995446;28;43973;-74
2022/09/14 09:32:03;;;;;;;2.03;1.97;;;23.70;66.60;;;;;;4995313;28;43366;-76
2022/09/14 09:35:00;;;;;;;2.40;2.30;;;23.70;67.20;;;;;;4978764;28;44186;-77
2022/09/14 09:37:39;;;;;;;2.30;2.20;;;23.70;67.20;;;;;;4974268;28;43560;-77
2022/09/14 09:40:14;;;;;;;1.83;1.73;;;23.70;67.00;;;;;;4986765;28;43896;-75
2022/09/14 09:43:04;;;;;;;2.37;2.27;;;23.70;67.00;;;;;;4975592;28;44802;-74
2022/09/14 09:45:56;;;;;;;2.20;2.10;;;23.70;67.40;;;;;;4991445;28;43455;-75
2022/09/14 09:48:26;;;;;;;1.73;1.73;;;23.70;67.40;;;;;;4974368;28;43513;-76
2022/09/14 09:51:03;;;;;;;2.10;2.00;;;23.80;67.10;;;;;;4993146;28;43908;-76
2022/09/14 09:53:32;;;;;;;1.97;1.97;;;24.00;66.60;;;;;;4971914;28;44261;-75
2022/09/14 09:56:00;;;;;;;2.00;2.00;;;24.10;66.20;;;;;;4974812;28;43401;-77
2022/09/14 09:58:31;;;;;;;2.10;2.10;;;24.10;66.10;;;;;;4974115;28;43475;-75
2022/09/14 10:01:00;;;;;;;1.93;1.93;;;24.00;66.10;;;;;;4993131;28;43925;-74
2022/09/14 10:03:32;;;;;;;1.90;1.90;;;24.00;66.30;;;;;;4992206;28;43394;-75
2022/09/14 10:06:07;;;;;;;2.13;2.03;;;23.90;66.80;;;;;;4994702;28;43365;-75
2022/09/14 10:08:39;;;;;;;2.27;2.17;;;23.90;66.90;;;;;;4969892;28;43449;-77
2022/09/14 10:11:24;;;;;;;2.00;2.00;;;23.90;66.90;;;;;;4998658;28;44948;-78
2022/09/14 10:13:52;;;;;;;2.00;2.00;;;23.80;66.80;;;;;;4979272;28;44583;-76
2022/09/14 10:16:21;;;;;;;2.00;1.90;;;23.70;67.10;;;;;;4973973;28;43451;-76
2022/09/14 10:18:49;;;;;;;2.20;2.10;;;23.70;67.10;;;;;;4978876;28;43522;-75
2022/09/14 10:21:19;;;;;;;1.90;1.90;;;23.70;67.10;;;;;;4991644;28;44129;-76
2022/09/14 10:23:47;;;;;;;1.97;1.93;;;23.70;67.00;;;;;;4977022;28;44598;-75
2022/09/14 10:26:34;;;;;;;2.27;2.10;;;23.70;67.00;;;;;;4978886;28;43990;-76
2022/09/14 10:29:29;;;;;;;1.80;1.80;;;23.70;67.40;;;;;;4995605;28;43435;-76
2022/09/14 10:31:59;;;;;;;1.80;1.80;;;23.70;67.20;;;;;;4992735;28;43910;-76
2022/09/14 10:34:27;;;;;;;1.97;1.97;;;23.90;66.80;;;;;;4991885;28;44594;-75
2022/09/14 10:37:00;;;;;;;2.00;2.00;;;24.10;66.40;;;;;;4999933;28;44043;-75
2022/09/14 10:39:30;;;;;;;2.00;2.00;;;24.20;66.10;;;;;;4973743;28;43692;-74
2022/09/14 10:42:00;;;;;;;2.10;2.00;;;24.10;65.90;;;;;;4992190;28;43917;-77
2022/09/14 10:44:45;;;;;;;2.00;2.00;;;24.10;66.00;;;;;;4979007;28;44416;-74
2022/09/14 10:47:31;;;;;;;1.70;1.70;;;24.00;67.10;;;;;;4981699;28;43856;-76
2022/09/14 10:50:06;;;;;;;1.90;1.90;;;23.90;66.60;;;;;;4995439;28;43493;-76
2022/09/14 10:52:39;;;;;;;1.97;1.97;;;23.90;66.70;;;;;;4973326;28;46140;-77
2022/09/14 10:55:19;;;;;;;1.67;1.67;;;23.90;66.70;;;;;;4998490;28;43884;-75
2022/09/14 10:57:51;;;;;;;1.77;1.77;;;23.80;66.80;;;;;;4993018;28;43921;-76
2022/09/14 11:00:20;;;;;;;1.80;1.80;;;23.70;67.10;;;;;;4997679;28;43486;-77
2022/09/14 11:02:55;;;;;;;1.93;1.87;;;23.80;67.30;;;;;;4995194;28;43881;-77
2022/09/14 11:05:25;;;;;;;1.73;1.73;;;23.70;67.00;;;;;;4996323;28;44058;-75
2022/09/14 11:08:00;;;;;;;1.70;1.70;;;23.70;67.00;;;;;;4994799;28;43400;-77
2022/09/14 11:10:32;;;;;;;2.20;2.10;;;23.70;67.40;;;;;;4997821;28;43676;-75
2022/09/14 11:13:15;;;;;;;1.70;1.70;;;23.70;67.40;;;;;;4990175;28;43922;-77
2022/09/14 11:15:45;;;;;;;1.90;1.90;;;23.80;67.10;;;;;;4979719;28;44600;-75
2022/09/14 11:18:20;;;;;;;1.90;1.90;;;24.00;66.70;;;;;;4995975;28;43392;-75
2022/09/14 11:20:54;;;;;;;1.50;1.50;;;24.10;66.30;;;;;;4998937;28;43383;-74
2022/09/14 11:23:29;;;;;;;1.77;1.77;;;24.10;66.10;;;;;;4993280;28;43982;-76
2022/09/14 11:25:59;;;;;;;1.77;1.77;;;24.00;66.20;;;;;;4992152;28;43429;-76
2022/09/14 11:28:29;;;;;;;1.83;1.80;;;24.00;66.40;;;;;;4994601;28;43418;-74
2022/09/14 11:31:00;;;;;;;2.10;2.00;;;23.90;66.80;;;;;;4998184;28;43485;-77
2022/09/14 11:33:31;;;;;;;2.00;2.00;;;23.90;66.80;;;;;;4990428;28;43852;-75
2022/09/14 11:36:00;;;;;;;1.60;1.60;;;23.80;66.70;;;;;;4993150;28;43986;-76
2022/09/14 11:38:32;;;;;;;1.80;1.80;;;23.80;66.70;;;;;;4994864;28;43420;-75
2022/09/14 11:41:02;;;;;;;1.80;1.70;;;23.70;67.20;;;;;;4998254;28;43408;-77
2022/09/14 11:43:31;;;;;;;1.70;1.70;;;23.70;67.20;;;;;;4991042;28;43678;-76
2022/09/14 11:46:05;;;;;;;1.60;1.60;;;23.70;67.10;;;;;;4993548;28;43773;-75
2022/09/14 11:48:34;;;;;;;1.67;1.67;;;23.70;67.00;;;;;;4992384;28;43955;-74
2022/09/14 11:51:21;;;;;;;1.60;1.60;;;23.70;67.10;;;;;;5000690;28;43392;-76
2022/09/14 11:53:50;;;;;;;1.90;1.90;;;23.70;67.50;;;;;;4992973;28;45180;-76
2022/09/14 11:56:25;;;;;;;1.77;1.77;;;23.80;67.30;;;;;;4988854;28;43911;-76
2022/09/14 11:58:54;;;;;;;2.00;1.90;;;23.90;66.80;;;;;;4997144;28;43864;-76
2022/09/14 12:01:36;;;;;;;2.03;2.03;;;24.00;66.20;;;;;;4989087;28;43426;-75
2022/09/14 12:04:14;;;;;;;1.67;1.67;;;24.20;66.00;;;;;;4974487;28;45715;-75
2022/09/14 12:06:54;;;;;;;1.90;1.90;;;24.20;66.00;;;;;;4971870;28;44977;-76
2022/09/14 12:09:41;;;;;;;1.77;1.77;;;24.10;66.00;;;;;;5000343;28;43452;-76
2022/09/14 12:12:27;;;;;;;1.40;1.40;;;24.00;66.40;;;;;;4975575;28;43948;-75
2022/09/14 12:14:59;;;;;;;1.80;1.80;;;23.90;66.60;;;;;;4994546;28;43669;-76
2022/09/14 12:17:29;;;;;;;1.60;1.60;;;23.90;66.70;;;;;;4991895;28;43401;-77
2022/09/14 12:20:43;;;;;;;1.70;1.70;;;23.80;66.60;;;;;;4994355;28;43522;-75
2022/09/14 12:23:25;;;;;;;1.60;1.60;;;23.70;67.00;;;;;;4992447;28;43474;-76
2022/09/14 12:26:04;;;;;;;1.50;1.50;;;23.80;67.20;;;;;;4997993;28;43658;-77
2022/09/14 12:28:42;;;;;;;1.70;1.70;;;23.90;66.90;;;;;;4977843;28;44286;-76
2022/09/14 12:31:12;;;;;;;1.63;1.63;;;23.90;66.60;;;;;;4994418;28;43433;-76
2022/09/14 12:34:01;;;;;;;1.87;1.87;;;23.90;66.60;;;;;;4973574;28;43474;-76
2022/09/14 12:36:59;;;;;;;1.87;1.80;;;23.80;66.70;;;;;;4969199;28;45348;-75
2022/09/14 12:39:27;;;;;;;1.50;1.50;;;23.80;67.00;;;;;;4996471;28;43445;-77
2022/09/14 12:42:04;;;;;;;1.60;1.60;;;23.80;66.90;;;;;;4991092;28;43954;-76
2022/09/14 12:44:37;;;;;;;1.40;1.40;;;23.80;66.80;;;;;;4995707;28;43501;-75
2022/09/14 12:47:39;;;;;;;1.57;1.57;;;23.80;67.00;;;;;;4998881;28;43925;-76
2022/09/14 12:50:13;;;;;;;1.70;1.70;;;23.70;67.20;;;;;;4983070;28;43467;-76
2022/09/14 12:52:45;;;;;;;1.50;1.50;;;23.70;67.10;;;;;;4996408;28;43411;-75
2022/09/14 12:55:34;;;;;;;1.50;1.50;;;23.70;67.00;;;;;;4994339;28;43472;-77
2022/09/14 12:58:07;;;;;;;1.70;1.70;;;23.70;67.20;;;;;;4993425;28;43867;-75
2022/09/14 13:00:47;;;;;;;1.67;1.67;;;23.70;67.60;;;;;;4988575;28;43440;-76
2022/09/14 13:03:22;;;;;;;1.60;1.60;;;23.70;67.30;;;;;;4989415;28;43452;-76
2022/09/14 13:05:50;;;;;;;1.60;1.60;;;23.90;66.90;;;;;;4976576;28;43723;-77
2022/09/14 13:08:20;;;;;;;1.80;1.70;;;24.00;66.30;;;;;;4998534;28;43632;-76